sensor_id;sensor_type;location;lat;lon;timestamp;P1;durP1;ratioP1;P2;durP2;ratioP2
2396;SDS011;1209;48.410;9.054;2022-09-25T00:00:34;7.73;;;5.40;;
2396;SDS011;1209;48.410;9.054;2022-09-25T00:03:00;8.17;;;5.43;;
2396;SDS011;1209;48.410;9.054;2022-09-25T00:05:25;6.20;;;5.00;;
2396;SDS011;1209;48.410;9.054;2022-09-25T00:07:51;7.43;;;5.10;;
2396;SDS011;1209;48.410;9.054;2022-09-25T00:10:17;7.13;;;4.60;;
2396;SDS011;1209;48.410;9.054;2022-09-25T00:12:42;5.97;;;4.10;;
2396;SDS011;1209;48.410;9.054;2022-09-25T00:15:08;4.47;;;3.80;;
2396;SDS011;1209;48.410;9.054;2022-09-25T00:17:34;3.97;;;3.67;;
2396;SDS011;1209;48.410;9.054;2022-09-25T00:19:59;7.67;;;4.60;;
2396;SDS011;1209;48.410;9.054;2022-09-25T00:22:25;5.70;;;3.90;;
2396;SDS011;1209;48.410;9.054;2022-09-25T00:24:52;12.23;;;6.20;;
2396;SDS011;1209;48.410;9.054;2022-09-25T00:27:17;7.40;;;5.07;;
2396;SDS011;1209;48.410;9.054;2022-09-25T00:29:43;7.67;;;4.17;;
2396;SDS011;1209;48.410;9.054;2022-09-25T00:32:09;4.40;;;3.33;;
2396;SDS011;1209;48.410;9.054;2022-09-25T00:34:38;4.27;;;3.67;;
2396;SDS011;1209;48.410;9.054;2022-09-25T00:37:04;3.40;;;3.00;;
2396;SDS011;1209;48.410;9.054;2022-09-25T00:39:30;3.60;;;3.20;;
2396;SDS011;1209;48.410;9.054;2022-09-25T00:41:57;3.50;;;3.20;;
2396;SDS011;1209;48.410;9.054;2022-09-25T00:47:21;4.60;;;3.70;;
2396;SDS011;1209;48.410;9.054;2022-09-25T00:49:51;3.70;;;2.63;;
2396;SDS011;1209;48.410;9.054;2022-09-25T00:52:19;4.97;;;3.13;;
2396;SDS011;1209;48.410;9.054;2022-09-25T00:54:47;4.07;;;3.67;;
2396;SDS011;1209;48.410;9.054;2022-09-25T00:57:18;3.67;;;2.87;;
2396;SDS011;1209;48.410;9.054;2022-09-25T00:59:46;3.77;;;3.27;;
2396;SDS011;1209;48.410;9.054;2022-09-25T01:02:18;3.47;;;3.00;;
2396;SDS011;1209;48.410;9.054;2022-09-25T01:04:48;4.10;;;3.07;;
2396;SDS011;1209;48.410;9.054;2022-09-25T01:07:15;3.30;;;3.00;;
2396;SDS011;1209;48.410;9.054;2022-09-25T01:09:42;7.90;;;2.80;;
2396;SDS011;1209;48.410;9.054;2022-09-25T01:12:08;3.63;;;3.07;;
2396;SDS011;1209;48.410;9.054;2022-09-25T01:14:34;3.27;;;2.83;;
2396;SDS011;1209;48.410;9.054;2022-09-25T01:19:30;4.90;;;3.47;;
2396;SDS011;1209;48.410;9.054;2022-09-25T01:22:33;3.17;;;2.87;;
2396;SDS011;1209;48.410;9.054;2022-09-25T01:25:27;3.20;;;2.90;;
2396;SDS011;1209;48.410;9.054;2022-09-25T01:28:18;4.37;;;3.27;;
2396;SDS011;1209;48.410;9.054;2022-09-25T01:30:49;4.60;;;3.63;;
2396;SDS011;1209;48.410;9.054;2022-09-25T01:33:35;3.17;;;2.60;;
2396;SDS011;1209;48.410;9.054;2022-09-25T01:36:09;2.80;;;2.60;;
2396;SDS011;1209;48.410;9.054;2022-09-25T01:38:54;3.77;;;3.03;;
2396;SDS011;1209;48.410;9.054;2022-09-25T01:41:29;4.37;;;3.00;;
2396;SDS011;1209;48.410;9.054;2022-09-25T01:44:07;3.27;;;2.97;;
2396;SDS011;1209;48.410;9.054;2022-09-25T01:46:39;3.20;;;2.87;;
2396;SDS011;1209;48.410;9.054;2022-09-25T01:49:23;3.90;;;3.20;;
2396;SDS011;1209;48.410;9.054;2022-09-25T01:51:54;9.10;;;3.53;;
2396;SDS011;1209;48.410;9.054;2022-09-25T01:54:35;4.93;;;3.10;;
2396;SDS011;1209;48.410;9.054;2022-09-25T01:57:09;3.90;;;3.43;;
2396;SDS011;1209;48.410;9.054;2022-09-25T01:59:58;3.10;;;2.90;;
2396;SDS011;1209;48.410;9.054;2022-09-25T02:02:29;3.60;;;3.10;;
2396;SDS011;1209;48.410;9.054;2022-09-25T02:05:02;4.33;;;3.30;;
2396;SDS011;1209;48.410;9.054;2022-09-25T02:07:38;3.30;;;2.93;;
2396;SDS011;1209;48.410;9.054;2022-09-25T02:10:16;3.40;;;2.80;;
2396;SDS011;1209;48.410;9.054;2022-09-25T02:12:48;3.03;;;2.60;;
2396;SDS011;1209;48.410;9.054;2022-09-25T02:15:18;4.43;;;3.53;;
2396;SDS011;1209;48.410;9.054;2022-09-25T02:20:36;4.03;;;3.40;;
2396;SDS011;1209;48.410;9.054;2022-09-25T02:23:15;3.00;;;2.70;;
2396;SDS011;1209;48.410;9.054;2022-09-25T02:25:47;3.00;;;2.80;;
2396;SDS011;1209;48.410;9.054;2022-09-25T02:28:23;3.30;;;3.00;;
2396;SDS011;1209;48.410;9.054;2022-09-25T02:30:50;4.17;;;3.50;;
2396;SDS011;1209;48.410;9.054;2022-09-25T02:33:18;4.30;;;3.60;;
2396;SDS011;1209;48.410;9.054;2022-09-25T02:35:44;5.00;;;3.50;;
2396;SDS011;1209;48.410;9.054;2022-09-25T02:38:09;4.77;;;3.67;;
2396;SDS011;1209;48.410;9.054;2022-09-25T02:45:58;4.83;;;3.47;;
2396;SDS011;1209;48.410;9.054;2022-09-25T02:54:13;3.70;;;3.40;;
2396;SDS011;1209;48.410;9.054;2022-09-25T02:56:50;3.53;;;2.77;;
2396;SDS011;1209;48.410;9.054;2022-09-25T02:59:26;2.97;;;2.73;;
2396;SDS011;1209;48.410;9.054;2022-09-25T03:01:56;3.37;;;2.90;;
2396;SDS011;1209;48.410;9.054;2022-09-25T03:04:22;3.20;;;2.90;;
2396;SDS011;1209;48.410;9.054;2022-09-25T03:06:51;3.07;;;2.77;;
2396;SDS011;1209;48.410;9.054;2022-09-25T03:09:16;3.20;;;2.70;;
2396;SDS011;1209;48.410;9.054;2022-09-25T03:11:45;3.20;;;2.90;;
2396;SDS011;1209;48.410;9.054;2022-09-25T03:14:10;3.30;;;2.70;;
2396;SDS011;1209;48.410;9.054;2022-09-25T03:19:04;3.03;;;2.80;;
2396;SDS011;1209;48.410;9.054;2022-09-25T03:21:30;3.10;;;2.90;;
2396;SDS011;1209;48.410;9.054;2022-09-25T03:23:56;3.60;;;2.93;;
2396;SDS011;1209;48.410;9.054;2022-09-25T03:26:23;5.80;;;4.20;;
2396;SDS011;1209;48.410;9.054;2022-09-25T03:28:49;4.57;;;3.10;;
2396;SDS011;1209;48.410;9.054;2022-09-25T03:31:14;5.63;;;3.80;;
2396;SDS011;1209;48.410;9.054;2022-09-25T03:33:40;3.93;;;3.33;;
2396;SDS011;1209;48.410;9.054;2022-09-25T03:36:09;4.03;;;2.93;;
2396;SDS011;1209;48.410;9.054;2022-09-25T03:38:37;3.00;;;2.57;;
2396;SDS011;1209;48.410;9.054;2022-09-25T03:41:04;2.33;;;2.23;;
2396;SDS011;1209;48.410;9.054;2022-09-25T03:43:33;3.00;;;2.47;;
2396;SDS011;1209;48.410;9.054;2022-09-25T03:46:00;3.60;;;3.20;;
2396;SDS011;1209;48.410;9.054;2022-09-25T03:48:25;3.17;;;2.93;;
2396;SDS011;1209;48.410;9.054;2022-09-25T03:50:51;2.47;;;2.27;;
2396;SDS011;1209;48.410;9.054;2022-09-25T03:53:17;2.93;;;2.67;;
2396;SDS011;1209;48.410;9.054;2022-09-25T03:55:43;2.63;;;2.40;;
2396;SDS011;1209;48.410;9.054;2022-09-25T03:58:12;2.47;;;2.00;;
2396;SDS011;1209;48.410;9.054;2022-09-25T04:00:38;3.60;;;2.60;;
2396;SDS011;1209;48.410;9.054;2022-09-25T04:03:04;4.50;;;2.70;;
2396;SDS011;1209;48.410;9.054;2022-09-25T04:05:29;3.17;;;2.30;;
2396;SDS011;1209;48.410;9.054;2022-09-25T04:07:55;2.60;;;2.40;;
2396;SDS011;1209;48.410;9.054;2022-09-25T04:10:20;2.97;;;2.70;;
2396;SDS011;1209;48.410;9.054;2022-09-25T04:12:45;3.00;;;2.80;;
2396;SDS011;1209;48.410;9.054;2022-09-25T04:15:11;2.77;;;2.57;;
2396;SDS011;1209;48.410;9.054;2022-09-25T04:17:36;2.70;;;2.50;;
2396;SDS011;1209;48.410;9.054;2022-09-25T04:20:01;3.23;;;2.93;;
2396;SDS011;1209;48.410;9.054;2022-09-25T04:22:27;2.83;;;2.63;;
2396;SDS011;1209;48.410;9.054;2022-09-25T04:24:52;3.37;;;2.77;;
2396;SDS011;1209;48.410;9.054;2022-09-25T04:27:20;4.30;;;3.33;;
2396;SDS011;1209;48.410;9.054;2022-09-25T04:29:46;3.53;;;3.03;;
2396;SDS011;1209;48.410;9.054;2022-09-25T04:32:14;3.07;;;2.53;;
2396;SDS011;1209;48.410;9.054;2022-09-25T04:34:58;3.87;;;3.53;;
2396;SDS011;1209;48.410;9.054;2022-09-25T04:37:24;3.30;;;2.93;;
2396;SDS011;1209;48.410;9.054;2022-09-25T04:39:56;3.50;;;2.93;;
2396;SDS011;1209;48.410;9.054;2022-09-25T04:42:22;3.37;;;3.00;;
2396;SDS011;1209;48.410;9.054;2022-09-25T04:44:49;3.40;;;2.97;;
2396;SDS011;1209;48.410;9.054;2022-09-25T04:47:20;3.00;;;2.70;;
2396;SDS011;1209;48.410;9.054;2022-09-25T04:49:46;3.43;;;2.90;;
2396;SDS011;1209;48.410;9.054;2022-09-25T04:52:13;2.50;;;2.30;;
2396;SDS011;1209;48.410;9.054;2022-09-25T04:54:39;5.50;;;2.97;;
2396;SDS011;1209;48.410;9.054;2022-09-25T04:57:05;3.60;;;3.30;;
2396;SDS011;1209;48.410;9.054;2022-09-25T04:59:30;3.67;;;3.37;;
2396;SDS011;1209;48.410;9.054;2022-09-25T05:01:55;3.97;;;3.23;;
2396;SDS011;1209;48.410;9.054;2022-09-25T05:04:21;4.37;;;3.57;;
2396;SDS011;1209;48.410;9.054;2022-09-25T05:06:46;4.13;;;3.63;;
2396;SDS011;1209;48.410;9.054;2022-09-25T05:09:11;4.57;;;4.17;;
2396;SDS011;1209;48.410;9.054;2022-09-25T05:11:37;5.70;;;4.00;;
2396;SDS011;1209;48.410;9.054;2022-09-25T05:14:02;5.97;;;3.60;;
2396;SDS011;1209;48.410;9.054;2022-09-25T05:16:27;4.70;;;4.30;;
2396;SDS011;1209;48.410;9.054;2022-09-25T05:18:54;4.37;;;3.87;;
2396;SDS011;1209;48.410;9.054;2022-09-25T05:21:20;6.07;;;4.43;;
2396;SDS011;1209;48.410;9.054;2022-09-25T05:23:46;4.30;;;3.40;;
2396;SDS011;1209;48.410;9.054;2022-09-25T05:26:11;5.50;;;4.40;;
2396;SDS011;1209;48.410;9.054;2022-09-25T05:28:36;4.70;;;4.17;;
2396;SDS011;1209;48.410;9.054;2022-09-25T05:31:02;4.40;;;4.00;;
2396;SDS011;1209;48.410;9.054;2022-09-25T05:33:29;4.80;;;3.90;;
2396;SDS011;1209;48.410;9.054;2022-09-25T05:35:58;8.93;;;4.90;;
2396;SDS011;1209;48.410;9.054;2022-09-25T05:38:25;4.40;;;4.00;;
2396;SDS011;1209;48.410;9.054;2022-09-25T05:40:50;5.40;;;4.77;;
2396;SDS011;1209;48.410;9.054;2022-09-25T05:43:16;3.83;;;3.53;;
2396;SDS011;1209;48.410;9.054;2022-09-25T05:45:41;4.40;;;3.93;;
2396;SDS011;1209;48.410;9.054;2022-09-25T05:48:07;4.67;;;4.17;;
2396;SDS011;1209;48.410;9.054;2022-09-25T05:50:32;4.27;;;3.87;;
2396;SDS011;1209;48.410;9.054;2022-09-25T05:52:59;4.20;;;3.53;;
2396;SDS011;1209;48.410;9.054;2022-09-25T05:55:26;4.20;;;3.80;;
2396;SDS011;1209;48.410;9.054;2022-09-25T05:57:52;4.17;;;3.80;;
2396;SDS011;1209;48.410;9.054;2022-09-25T06:00:17;5.67;;;3.93;;
2396;SDS011;1209;48.410;9.054;2022-09-25T06:02:43;4.10;;;3.70;;
2396;SDS011;1209;48.410;9.054;2022-09-25T06:05:08;4.13;;;3.73;;
2396;SDS011;1209;48.410;9.054;2022-09-25T06:07:34;3.53;;;3.23;;
2396;SDS011;1209;48.410;9.054;2022-09-25T06:10:00;6.90;;;3.80;;
2396;SDS011;1209;48.410;9.054;2022-09-25T06:12:27;5.70;;;4.23;;
2396;SDS011;1209;48.410;9.054;2022-09-25T06:14:53;6.70;;;3.93;;
2396;SDS011;1209;48.410;9.054;2022-09-25T06:17:18;5.23;;;4.10;;
2396;SDS011;1209;48.410;9.054;2022-09-25T06:19:44;6.83;;;4.87;;
2396;SDS011;1209;48.410;9.054;2022-09-25T06:22:09;7.17;;;4.40;;
2396;SDS011;1209;48.410;9.054;2022-09-25T06:24:34;5.37;;;4.87;;
2396;SDS011;1209;48.410;9.054;2022-09-25T06:27:00;5.70;;;4.60;;
2396;SDS011;1209;48.410;9.054;2022-09-25T06:29:25;5.87;;;4.47;;
2396;SDS011;1209;48.410;9.054;2022-09-25T06:31:50;5.10;;;4.60;;
2396;SDS011;1209;48.410;9.054;2022-09-25T06:34:16;4.63;;;4.10;;
2396;SDS011;1209;48.410;9.054;2022-09-25T06:36:41;6.17;;;4.70;;
2396;SDS011;1209;48.410;9.054;2022-09-25T06:39:06;4.20;;;3.80;;
2396;SDS011;1209;48.410;9.054;2022-09-25T06:41:32;5.30;;;4.30;;
2396;SDS011;1209;48.410;9.054;2022-09-25T06:43:58;7.17;;;5.00;;
2396;SDS011;1209;48.410;9.054;2022-09-25T06:46:23;5.73;;;3.80;;
2396;SDS011;1209;48.410;9.054;2022-09-25T06:48:50;4.80;;;3.87;;
2396;SDS011;1209;48.410;9.054;2022-09-25T06:51:19;4.93;;;3.83;;
2396;SDS011;1209;48.410;9.054;2022-09-25T06:53:45;4.70;;;4.30;;
2396;SDS011;1209;48.410;9.054;2022-09-25T06:56:11;4.17;;;3.70;;
2396;SDS011;1209;48.410;9.054;2022-09-25T06:58:36;4.70;;;4.30;;
2396;SDS011;1209;48.410;9.054;2022-09-25T07:01:02;5.37;;;4.40;;
2396;SDS011;1209;48.410;9.054;2022-09-25T07:03:27;6.40;;;5.03;;
2396;SDS011;1209;48.410;9.054;2022-09-25T07:06:12;5.47;;;4.33;;
2396;SDS011;1209;48.410;9.054;2022-09-25T07:08:46;3.40;;;3.10;;
2396;SDS011;1209;48.410;9.054;2022-09-25T07:11:16;4.60;;;4.20;;
2396;SDS011;1209;48.410;9.054;2022-09-25T07:13:46;5.07;;;4.50;;
2396;SDS011;1209;48.410;9.054;2022-09-25T07:16:16;4.77;;;4.30;;
2396;SDS011;1209;48.410;9.054;2022-09-25T07:18:42;5.20;;;4.70;;
2396;SDS011;1209;48.410;9.054;2022-09-25T07:21:12;4.47;;;3.70;;
2396;SDS011;1209;48.410;9.054;2022-09-25T07:23:39;4.63;;;3.93;;
2396;SDS011;1209;48.410;9.054;2022-09-25T07:26:07;5.10;;;4.57;;
2396;SDS011;1209;48.410;9.054;2022-09-25T07:28:35;6.23;;;4.83;;
2396;SDS011;1209;48.410;9.054;2022-09-25T07:31:17;6.73;;;4.90;;
2396;SDS011;1209;48.410;9.054;2022-09-25T07:33:44;5.60;;;5.00;;
2396;SDS011;1209;48.410;9.054;2022-09-25T07:36:11;5.47;;;4.97;;
2396;SDS011;1209;48.410;9.054;2022-09-25T07:38:37;4.63;;;4.20;;
2396;SDS011;1209;48.410;9.054;2022-09-25T07:41:03;6.23;;;5.60;;
2396;SDS011;1209;48.410;9.054;2022-09-25T07:43:30;7.23;;;4.90;;
2396;SDS011;1209;48.410;9.054;2022-09-25T07:45:58;5.83;;;4.67;;
2396;SDS011;1209;48.410;9.054;2022-09-25T07:48:24;5.87;;;4.53;;
2396;SDS011;1209;48.410;9.054;2022-09-25T07:50:51;6.30;;;4.80;;
2396;SDS011;1209;48.410;9.054;2022-09-25T07:53:16;7.50;;;5.50;;
2396;SDS011;1209;48.410;9.054;2022-09-25T07:55:45;7.27;;;5.60;;
2396;SDS011;1209;48.410;9.054;2022-09-25T07:58:11;6.50;;;5.10;;
2396;SDS011;1209;48.410;9.054;2022-09-25T08:00:37;6.17;;;4.90;;
2396;SDS011;1209;48.410;9.054;2022-09-25T08:03:04;5.40;;;4.80;;
2396;SDS011;1209;48.410;9.054;2022-09-25T08:05:29;5.87;;;4.20;;
2396;SDS011;1209;48.410;9.054;2022-09-25T08:07:55;7.10;;;5.40;;
2396;SDS011;1209;48.410;9.054;2022-09-25T08:10:21;5.90;;;4.97;;
2396;SDS011;1209;48.410;9.054;2022-09-25T08:12:46;6.80;;;5.23;;
2396;SDS011;1209;48.410;9.054;2022-09-25T08:15:11;6.10;;;4.90;;
2396;SDS011;1209;48.410;9.054;2022-09-25T08:17:38;4.40;;;3.63;;
2396;SDS011;1209;48.410;9.054;2022-09-25T08:20:04;5.60;;;4.50;;
2396;SDS011;1209;48.410;9.054;2022-09-25T08:22:30;5.47;;;4.50;;
2396;SDS011;1209;48.410;9.054;2022-09-25T08:24:55;5.10;;;4.23;;
2396;SDS011;1209;48.410;9.054;2022-09-25T08:27:21;4.70;;;4.30;;
2396;SDS011;1209;48.410;9.054;2022-09-25T08:29:46;5.37;;;4.50;;
2396;SDS011;1209;48.410;9.054;2022-09-25T08:32:11;4.23;;;3.60;;
2396;SDS011;1209;48.410;9.054;2022-09-25T08:34:37;5.97;;;4.50;;
2396;SDS011;1209;48.410;9.054;2022-09-25T08:37:02;5.40;;;4.70;;
2396;SDS011;1209;48.410;9.054;2022-09-25T08:39:28;6.03;;;4.13;;
2396;SDS011;1209;48.410;9.054;2022-09-25T08:41:53;7.70;;;4.80;;
2396;SDS011;1209;48.410;9.054;2022-09-25T08:44:24;7.60;;;4.37;;
2396;SDS011;1209;48.410;9.054;2022-09-25T08:47:17;8.13;;;5.20;;
2396;SDS011;1209;48.410;9.054;2022-09-25T08:52:28;6.53;;;4.80;;
2396;SDS011;1209;48.410;9.054;2022-09-25T08:54:55;6.83;;;4.63;;
2396;SDS011;1209;48.410;9.054;2022-09-25T08:59:56;6.13;;;4.70;;
2396;SDS011;1209;48.410;9.054;2022-09-25T09:02:35;5.80;;;4.60;;
2396;SDS011;1209;48.410;9.054;2022-09-25T09:05:04;6.00;;;5.30;;
2396;SDS011;1209;48.410;9.054;2022-09-25T09:07:39;5.33;;;4.33;;
2396;SDS011;1209;48.410;9.054;2022-09-25T09:10:15;5.93;;;5.30;;
2396;SDS011;1209;48.410;9.054;2022-09-25T09:12:43;4.83;;;4.30;;
2396;SDS011;1209;48.410;9.054;2022-09-25T09:15:56;4.70;;;3.90;;
2396;SDS011;1209;48.410;9.054;2022-09-25T09:18:29;4.90;;;4.00;;
2396;SDS011;1209;48.410;9.054;2022-09-25T09:21:01;4.40;;;3.83;;
2396;SDS011;1209;48.410;9.054;2022-09-25T09:32:09;4.70;;;4.10;;
2396;SDS011;1209;48.410;9.054;2022-09-25T09:37:46;3.90;;;3.17;;
2396;SDS011;1209;48.410;9.054;2022-09-25T09:43:47;4.40;;;4.00;;
2396;SDS011;1209;48.410;9.054;2022-09-25T09:46:21;3.97;;;3.40;;
2396;SDS011;1209;48.410;9.054;2022-09-25T09:49:17;3.40;;;3.10;;
2396;SDS011;1209;48.410;9.054;2022-09-25T09:54:39;3.20;;;2.40;;
2396;SDS011;1209;48.410;9.054;2022-09-25T09:57:43;3.27;;;2.97;;
2396;SDS011;1209;48.410;9.054;2022-09-25T10:00:12;4.10;;;3.60;;
2396;SDS011;1209;48.410;9.054;2022-09-25T10:02:44;3.10;;;2.80;;
2396;SDS011;1209;48.410;9.054;2022-09-25T10:05:23;5.63;;;3.80;;
2396;SDS011;1209;48.410;9.054;2022-09-25T10:07:54;3.67;;;3.13;;
2396;SDS011;1209;48.410;9.054;2022-09-25T10:10:20;4.93;;;3.60;;
2396;SDS011;1209;48.410;9.054;2022-09-25T10:12:52;3.73;;;2.60;;
2396;SDS011;1209;48.410;9.054;2022-09-25T10:15:23;4.53;;;3.63;;
2396;SDS011;1209;48.410;9.054;2022-09-25T10:17:53;5.10;;;3.73;;
2396;SDS011;1209;48.410;9.054;2022-09-25T10:20:22;5.83;;;3.20;;
2396;SDS011;1209;48.410;9.054;2022-09-25T10:22:49;6.57;;;3.23;;
2396;SDS011;1209;48.410;9.054;2022-09-25T10:25:33;3.67;;;3.27;;
2396;SDS011;1209;48.410;9.054;2022-09-25T10:28:08;10.90;;;3.77;;
2396;SDS011;1209;48.410;9.054;2022-09-25T10:30:45;3.33;;;3.03;;
2396;SDS011;1209;48.410;9.054;2022-09-25T10:33:14;3.77;;;3.33;;
2396;SDS011;1209;48.410;9.054;2022-09-25T10:35:45;3.57;;;3.27;;
2396;SDS011;1209;48.410;9.054;2022-09-25T10:38:54;4.73;;;4.20;;
2396;SDS011;1209;48.410;9.054;2022-09-25T10:41:13;5.17;;;3.80;;
2396;SDS011;1209;48.410;9.054;2022-09-25T10:43:54;3.70;;;3.40;;
2396;SDS011;1209;48.410;9.054;2022-09-25T10:49:20;5.37;;;4.23;;
2396;SDS011;1209;48.410;9.054;2022-09-25T10:52:12;5.40;;;4.33;;
2396;SDS011;1209;48.410;9.054;2022-09-25T10:54:40;4.40;;;3.83;;
2396;SDS011;1209;48.410;9.054;2022-09-25T10:57:15;3.70;;;3.37;;
2396;SDS011;1209;48.410;9.054;2022-09-25T10:59:57;5.17;;;4.00;;
2396;SDS011;1209;48.410;9.054;2022-09-25T11:02:38;4.13;;;3.73;;
2396;SDS011;1209;48.410;9.054;2022-09-25T11:05:06;5.80;;;4.30;;
2396;SDS011;1209;48.410;9.054;2022-09-25T11:07:39;3.80;;;3.27;;
2396;SDS011;1209;48.410;9.054;2022-09-25T11:13:18;4.57;;;3.70;;
2396;SDS011;1209;48.410;9.054;2022-09-25T11:15:49;4.47;;;3.90;;
2396;SDS011;1209;48.410;9.054;2022-09-25T11:18:37;4.83;;;3.97;;
2396;SDS011;1209;48.410;9.054;2022-09-25T11:21:03;3.60;;;3.30;;
2396;SDS011;1209;48.410;9.054;2022-09-25T11:23:35;4.97;;;3.20;;
2396;SDS011;1209;48.410;9.054;2022-09-25T11:26:06;4.10;;;3.70;;
2396;SDS011;1209;48.410;9.054;2022-09-25T11:28:38;4.43;;;3.70;;
2396;SDS011;1209;48.410;9.054;2022-09-25T11:36:46;3.80;;;3.50;;
2396;SDS011;1209;48.410;9.054;2022-09-25T11:39:37;5.30;;;4.67;;
2396;SDS011;1209;48.410;9.054;2022-09-25T11:42:47;7.20;;;4.90;;
2396;SDS011;1209;48.410;9.054;2022-09-25T11:48:25;5.27;;;4.77;;
2396;SDS011;1209;48.410;9.054;2022-09-25T11:59:16;5.33;;;4.43;;
2396;SDS011;1209;48.410;9.054;2022-09-25T12:01:49;7.50;;;5.13;;
2396;SDS011;1209;48.410;9.054;2022-09-25T12:04:25;6.47;;;5.03;;
2396;SDS011;1209;48.410;9.054;2022-09-25T12:13:21;5.30;;;4.50;;
2396;SDS011;1209;48.410;9.054;2022-09-25T12:21:13;6.33;;;4.70;;
2396;SDS011;1209;48.410;9.054;2022-09-25T12:23:48;5.87;;;4.70;;
2396;SDS011;1209;48.410;9.054;2022-09-25T12:26:30;6.00;;;4.60;;
2396;SDS011;1209;48.410;9.054;2022-09-25T12:35:13;6.13;;;4.57;;
2396;SDS011;1209;48.410;9.054;2022-09-25T12:37:42;5.70;;;4.60;;
2396;SDS011;1209;48.410;9.054;2022-09-25T12:50:42;6.33;;;4.73;;
2396;SDS011;1209;48.410;9.054;2022-09-25T12:53:58;6.73;;;5.20;;
2396;SDS011;1209;48.410;9.054;2022-09-25T12:56:36;7.13;;;4.57;;
2396;SDS011;1209;48.410;9.054;2022-09-25T12:59:14;6.53;;;4.93;;
2396;SDS011;1209;48.410;9.054;2022-09-25T13:01:52;9.60;;;4.70;;
2396;SDS011;1209;48.410;9.054;2022-09-25T13:04:35;6.03;;;4.37;;
2396;SDS011;1209;48.410;9.054;2022-09-25T13:12:59;5.13;;;4.10;;
2396;SDS011;1209;48.410;9.054;2022-09-25T13:15:31;5.80;;;4.00;;
2396;SDS011;1209;48.410;9.054;2022-09-25T13:17:59;5.63;;;4.50;;
2396;SDS011;1209;48.410;9.054;2022-09-25T13:22:50;7.23;;;5.13;;
2396;SDS011;1209;48.410;9.054;2022-09-25T13:25:20;4.97;;;3.50;;
2396;SDS011;1209;48.410;9.054;2022-09-25T13:27:46;6.57;;;5.07;;
2396;SDS011;1209;48.410;9.054;2022-09-25T13:32:49;6.13;;;4.53;;
2396;SDS011;1209;48.410;9.054;2022-09-25T13:35:17;6.40;;;4.13;;
2396;SDS011;1209;48.410;9.054;2022-09-25T13:37:44;5.50;;;4.53;;
2396;SDS011;1209;48.410;9.054;2022-09-25T13:40:16;6.33;;;5.17;;
2396;SDS011;1209;48.410;9.054;2022-09-25T13:43:21;5.87;;;4.50;;
2396;SDS011;1209;48.410;9.054;2022-09-25T13:46:22;5.43;;;4.13;;
2396;SDS011;1209;48.410;9.054;2022-09-25T13:48:41;5.20;;;4.70;;
2396;SDS011;1209;48.410;9.054;2022-09-25T13:53:52;7.57;;;6.07;;
2396;SDS011;1209;48.410;9.054;2022-09-25T14:04:06;7.93;;;5.00;;
2396;SDS011;1209;48.410;9.054;2022-09-25T14:06:38;6.83;;;4.53;;
2396;SDS011;1209;48.410;9.054;2022-09-25T14:09:10;5.97;;;4.93;;
2396;SDS011;1209;48.410;9.054;2022-09-25T14:11:37;5.90;;;5.27;;
2396;SDS011;1209;48.410;9.054;2022-09-25T14:14:08;9.13;;;6.57;;
2396;SDS011;1209;48.410;9.054;2022-09-25T14:16:48;7.40;;;5.93;;
2396;SDS011;1209;48.410;9.054;2022-09-25T14:19:17;7.97;;;5.60;;
2396;SDS011;1209;48.410;9.054;2022-09-25T14:21:47;11.00;;;5.90;;
2396;SDS011;1209;48.410;9.054;2022-09-25T14:24:19;7.87;;;6.27;;
2396;SDS011;1209;48.410;9.054;2022-09-25T14:26:48;7.10;;;5.53;;
2396;SDS011;1209;48.410;9.054;2022-09-25T14:29:26;7.77;;;4.93;;
2396;SDS011;1209;48.410;9.054;2022-09-25T14:34:51;7.87;;;4.63;;
2396;SDS011;1209;48.410;9.054;2022-09-25T14:37:48;6.17;;;5.03;;
2396;SDS011;1209;48.410;9.054;2022-09-25T14:40:36;7.67;;;5.20;;
2396;SDS011;1209;48.410;9.054;2022-09-25T14:46:06;6.53;;;4.33;;
2396;SDS011;1209;48.410;9.054;2022-09-25T14:48:52;5.47;;;4.90;;
2396;SDS011;1209;48.410;9.054;2022-09-25T14:51:22;5.10;;;3.67;;
2396;SDS011;1209;48.410;9.054;2022-09-25T14:53:51;4.50;;;4.10;;
2396;SDS011;1209;48.410;9.054;2022-09-25T14:56:28;5.93;;;3.77;;
2396;SDS011;1209;48.410;9.054;2022-09-25T14:58:57;5.90;;;4.07;;
2396;SDS011;1209;48.410;9.054;2022-09-25T15:01:27;4.03;;;3.63;;
2396;SDS011;1209;48.410;9.054;2022-09-25T15:04:00;5.33;;;4.27;;
2396;SDS011;1209;48.410;9.054;2022-09-25T15:06:28;3.93;;;3.40;;
2396;SDS011;1209;48.410;9.054;2022-09-25T15:08:56;4.13;;;3.77;;
2396;SDS011;1209;48.410;9.054;2022-09-25T15:11:26;5.97;;;4.40;;
2396;SDS011;1209;48.410;9.054;2022-09-25T15:13:53;5.07;;;4.03;;
2396;SDS011;1209;48.410;9.054;2022-09-25T15:16:32;4.73;;;4.00;;
2396;SDS011;1209;48.410;9.054;2022-09-25T15:19:20;5.80;;;3.83;;
2396;SDS011;1209;48.410;9.054;2022-09-25T15:21:49;4.90;;;3.90;;
2396;SDS011;1209;48.410;9.054;2022-09-25T15:24:16;4.67;;;3.73;;
2396;SDS011;1209;48.410;9.054;2022-09-25T15:26:49;4.67;;;3.83;;
2396;SDS011;1209;48.410;9.054;2022-09-25T15:29:21;3.60;;;3.20;;
2396;SDS011;1209;48.410;9.054;2022-09-25T15:31:48;3.23;;;2.93;;
2396;SDS011;1209;48.410;9.054;2022-09-25T15:34:18;3.73;;;3.30;;
2396;SDS011;1209;48.410;9.054;2022-09-25T15:36:49;3.83;;;3.50;;
2396;SDS011;1209;48.410;9.054;2022-09-25T15:39:16;4.83;;;4.10;;
2396;SDS011;1209;48.410;9.054;2022-09-25T15:41:46;5.50;;;3.73;;
2396;SDS011;1209;48.410;9.054;2022-09-25T15:44:17;9.00;;;4.20;;
2396;SDS011;1209;48.410;9.054;2022-09-25T15:46:43;4.80;;;4.30;;
2396;SDS011;1209;48.410;9.054;2022-09-25T15:49:15;6.47;;;4.27;;
2396;SDS011;1209;48.410;9.054;2022-09-25T15:51:45;5.47;;;4.20;;
2396;SDS011;1209;48.410;9.054;2022-09-25T15:54:21;3.60;;;3.30;;
2396;SDS011;1209;48.410;9.054;2022-09-25T15:56:54;4.97;;;3.47;;
2396;SDS011;1209;48.410;9.054;2022-09-25T16:02:27;4.50;;;3.77;;
2396;SDS011;1209;48.410;9.054;2022-09-25T16:05:12;5.40;;;4.00;;
2396;SDS011;1209;48.410;9.054;2022-09-25T16:07:40;3.83;;;3.53;;
2396;SDS011;1209;48.410;9.054;2022-09-25T16:17:50;3.50;;;3.20;;
2396;SDS011;1209;48.410;9.054;2022-09-25T16:20:30;3.30;;;3.00;;
2396;SDS011;1209;48.410;9.054;2022-09-25T16:22:59;8.00;;;3.63;;
2396;SDS011;1209;48.410;9.054;2022-09-25T16:25:31;5.73;;;3.70;;
2396;SDS011;1209;48.410;9.054;2022-09-25T16:28:07;5.30;;;3.47;;
2396;SDS011;1209;48.410;9.054;2022-09-25T16:30:48;6.67;;;3.30;;
2396;SDS011;1209;48.410;9.054;2022-09-25T16:33:35;4.80;;;3.50;;
2396;SDS011;1209;48.410;9.054;2022-09-25T16:36:22;3.80;;;3.03;;
2396;SDS011;1209;48.410;9.054;2022-09-25T16:41:33;3.90;;;3.50;;
2396;SDS011;1209;48.410;9.054;2022-09-25T16:49:22;4.63;;;4.27;;
2396;SDS011;1209;48.410;9.054;2022-09-25T16:51:49;3.80;;;3.43;;
2396;SDS011;1209;48.410;9.054;2022-09-25T16:54:17;5.77;;;3.30;;
2396;SDS011;1209;48.410;9.054;2022-09-25T16:56:44;4.97;;;3.57;;
2396;SDS011;1209;48.410;9.054;2022-09-25T16:59:18;5.27;;;3.50;;
2396;SDS011;1209;48.410;9.054;2022-09-25T17:01:49;7.13;;;4.83;;
2396;SDS011;1209;48.410;9.054;2022-09-25T17:04:16;6.03;;;4.60;;
2396;SDS011;1209;48.410;9.054;2022-09-25T17:06:45;6.37;;;4.77;;
2396;SDS011;1209;48.410;9.054;2022-09-25T17:09:12;5.23;;;4.73;;
2396;SDS011;1209;48.410;9.054;2022-09-25T17:11:39;4.60;;;4.20;;
2396;SDS011;1209;48.410;9.054;2022-09-25T17:14:09;7.43;;;4.77;;
2396;SDS011;1209;48.410;9.054;2022-09-25T17:16:47;5.53;;;4.00;;
2396;SDS011;1209;48.410;9.054;2022-09-25T17:19:13;5.00;;;4.10;;
2396;SDS011;1209;48.410;9.054;2022-09-25T17:21:41;4.77;;;4.30;;
2396;SDS011;1209;48.410;9.054;2022-09-25T17:24:10;5.17;;;4.73;;
2396;SDS011;1209;48.410;9.054;2022-09-25T17:26:36;4.10;;;3.60;;
2396;SDS011;1209;48.410;9.054;2022-09-25T17:29:02;4.97;;;3.50;;
2396;SDS011;1209;48.410;9.054;2022-09-25T17:31:28;3.10;;;2.80;;
2396;SDS011;1209;48.410;9.054;2022-09-25T17:33:54;4.47;;;3.03;;
2396;SDS011;1209;48.410;9.054;2022-09-25T17:36:19;4.37;;;3.87;;
2396;SDS011;1209;48.410;9.054;2022-09-25T17:38:44;3.80;;;2.53;;
2396;SDS011;1209;48.410;9.054;2022-09-25T17:41:27;4.30;;;2.90;;
2396;SDS011;1209;48.410;9.054;2022-09-25T17:43:56;2.97;;;2.77;;
2396;SDS011;1209;48.410;9.054;2022-09-25T17:46:21;2.40;;;2.20;;
2396;SDS011;1209;48.410;9.054;2022-09-25T17:48:47;4.00;;;2.40;;
2396;SDS011;1209;48.410;9.054;2022-09-25T17:51:16;2.30;;;2.10;;
2396;SDS011;1209;48.410;9.054;2022-09-25T17:53:44;3.20;;;2.90;;
2396;SDS011;1209;48.410;9.054;2022-09-25T17:56:10;4.17;;;2.93;;
2396;SDS011;1209;48.410;9.054;2022-09-25T17:58:36;3.40;;;3.10;;